createdAt,value
2022-10-07T00:02:15.406Z,5.30
2022-10-07T00:04:45.421Z,5.40
2022-10-07T00:07:12.726Z,5.50
2022-10-07T00:09:41.995Z,5.50
2022-10-07T00:12:09.161Z,5.40
2022-10-07T00:14:35.405Z,5.30
2022-10-07T00:17:01.728Z,5.30
2022-10-07T00:19:28.005Z,5.30
2022-10-07T00:21:54.883Z,5.20
2022-10-07T00:24:21.206Z,5.10
2022-10-07T00:26:47.466Z,5.10
2022-10-07T00:29:13.671Z,5.00
2022-10-07T00:31:41.054Z,5.10
2022-10-07T00:34:07.323Z,5.20
2022-10-07T00:36:34.928Z,5.30
2022-10-07T00:39:10.304Z,5.20
2022-10-07T00:41:40.572Z,5.20
2022-10-07T00:44:48.751Z,5.20
2022-10-07T00:49:11.215Z,5.10
2022-10-07T00:51:37.855Z,4.90
2022-10-07T00:54:06.539Z,5.00
2022-10-07T00:56:32.769Z,5.20
2022-10-07T00:58:58.974Z,5.20
2022-10-07T01:01:25.906Z,5.20
2022-10-07T01:03:52.245Z,5.20
2022-10-07T01:06:18.426Z,5.20
2022-10-07T01:08:45.068Z,5.00
2022-10-07T01:16:36.957Z,5.00
2022-10-07T01:19:17.555Z,4.90
2022-10-07T01:23:32.219Z,4.70
2022-10-07T01:27:27.146Z,4.70
2022-10-07T01:30:02.790Z,4.70
2022-10-07T01:32:32.410Z,4.70
2022-10-07T01:34:59.656Z,4.70
2022-10-07T01:37:28.116Z,4.70
2022-10-07T01:39:58.263Z,4.60
2022-10-07T01:42:26.982Z,4.50
2022-10-07T01:44:53.983Z,4.50
2022-10-07T01:47:20.171Z,4.50
2022-10-07T01:49:46.341Z,4.50
2022-10-07T01:54:28.493Z,4.50
2022-10-07T01:57:39.335Z,4.50
2022-10-07T02:00:12.280Z,4.50
2022-10-07T02:05:57.375Z,4.50
2022-10-07T02:08:42.495Z,4.60
2022-10-07T02:11:41.951Z,4.70
2022-10-07T02:14:12.953Z,4.60
2022-10-07T02:17:02.162Z,4.50
2022-10-07T02:19:30.754Z,4.50
2022-10-07T02:21:57.113Z,4.50
2022-10-07T02:24:25.175Z,4.50
2022-10-07T02:26:51.388Z,4.40
2022-10-07T02:29:18.658Z,4.40
2022-10-07T02:31:44.917Z,4.40
2022-10-07T02:34:17.475Z,4.30
2022-10-07T02:36:58.443Z,4.30
2022-10-07T02:39:25.837Z,4.20
2022-10-07T02:42:09.239Z,4.20
2022-10-07T02:44:47.928Z,4.20
2022-10-07T02:48:58.364Z,4.20
2022-10-07T02:51:29.443Z,4.20
2022-10-07T02:53:55.786Z,4.10
2022-10-07T02:56:22.210Z,4.20
2022-10-07T02:58:48.404Z,4.10
2022-10-07T03:01:17.228Z,4.10
2022-10-07T03:03:46.310Z,4.10
2022-10-07T03:06:13.235Z,4.20
2022-10-07T03:08:41.184Z,4.10
2022-10-07T03:11:07.517Z,4.20
2022-10-07T03:13:35.378Z,4.10
2022-10-07T03:16:04.996Z,4.00
2022-10-07T03:18:32.138Z,4.00
2022-10-07T03:21:00.371Z,3.90
2022-10-07T03:23:28.486Z,3.90
2022-10-07T03:25:56.350Z,3.90
2022-10-07T03:28:24.258Z,3.90
2022-10-07T03:30:50.903Z,3.90
2022-10-07T03:33:19.018Z,3.90
2022-10-07T03:35:45.271Z,3.80
2022-10-07T03:38:12.243Z,3.90
2022-10-07T03:40:38.544Z,3.80
2022-10-07T03:43:05.262Z,3.90
2022-10-07T03:45:31.449Z,3.90
2022-10-07T03:47:57.943Z,4.00
2022-10-07T03:50:25.909Z,4.00
2022-10-07T03:52:52.721Z,4.10
2022-10-07T03:55:19.099Z,4.10
2022-10-07T03:57:59.134Z,4.10
2022-10-07T04:00:26.960Z,4.20
2022-10-07T04:02:53.232Z,4.10
2022-10-07T04:05:20.020Z,4.10
2022-10-07T04:07:47.303Z,4.00
2022-10-07T04:10:15.076Z,4.00
2022-10-07T04:12:45.032Z,4.00
2022-10-07T04:15:14.133Z,4.00
2022-10-07T04:17:41.531Z,3.90
2022-10-07T04:20:10.560Z,3.90
2022-10-07T04:22:37.462Z,3.80
2022-10-07T04:25:23.189Z,3.80
2022-10-07T04:27:57.197Z,3.80
2022-10-07T04:30:25.174Z,3.80
2022-10-07T04:32:51.488Z,3.80
2022-10-07T04:35:18.531Z,3.80
2022-10-07T04:37:44.946Z,3.70
2022-10-07T04:40:12.411Z,3.80
2022-10-07T04:42:57.206Z,3.80
2022-10-07T04:45:23.496Z,3.70
2022-10-07T04:47:50.239Z,3.70
2022-10-07T04:50:16.534Z,3.70
2022-10-07T04:52:43.234Z,3.70
2022-10-07T04:55:13.689Z,3.70
2022-10-07T04:57:39.929Z,3.70
2022-10-07T05:00:07.229Z,3.90
2022-10-07T05:02:33.531Z,3.80
2022-10-07T05:04:59.989Z,3.90
2022-10-07T05:07:26.237Z,3.90
2022-10-07T05:09:52.507Z,3.90
2022-10-07T05:12:19.738Z,4.00
2022-10-07T05:14:46.933Z,4.00
2022-10-07T05:17:17.391Z,4.00
2022-10-07T05:19:43.602Z,3.90
2022-10-07T05:22:10.960Z,3.90
2022-10-07T05:24:37.131Z,4.00
2022-10-07T05:27:03.512Z,4.00
2022-10-07T05:29:29.759Z,4.10
2022-10-07T05:31:58.732Z,4.20
2022-10-07T05:34:28.235Z,4.30
2022-10-07T05:36:54.494Z,4.40
2022-10-07T05:39:20.713Z,4.60
2022-10-07T05:41:46.903Z,4.70
2022-10-07T05:44:15.020Z,4.80
2022-10-07T05:46:41.901Z,5.00
2022-10-07T05:49:08.047Z,5.10
2022-10-07T05:51:34.307Z,5.30
2022-10-07T05:54:00.588Z,5.60
2022-10-07T05:56:26.845Z,5.60
2022-10-07T05:58:53.104Z,6.00
2022-10-07T06:01:20.879Z,6.20
2022-10-07T06:03:51.933Z,6.60
2022-10-07T06:06:19.307Z,6.70
2022-10-07T06:08:46.135Z,7.50
2022-10-07T06:11:31.753Z,7.80
2022-10-07T06:13:58.021Z,8.10
2022-10-07T06:16:24.309Z,8.60
2022-10-07T06:18:51.849Z,9.10
2022-10-07T06:21:18.712Z,9.10
2022-10-07T06:23:50.766Z,9.20
2022-10-07T06:26:16.988Z,8.50
2022-10-07T06:28:43.259Z,8.10
2022-10-07T06:31:11.540Z,7.90
2022-10-07T06:33:37.764Z,8.60
2022-10-07T06:36:05.456Z,9.00
2022-10-07T06:38:32.445Z,9.20
2022-10-07T06:40:59.193Z,9.60
2022-10-07T06:43:30.242Z,9.80
2022-10-07T06:45:58.586Z,8.90
2022-10-07T06:48:26.091Z,9.70
2022-10-07T06:50:53.407Z,9.20
2022-10-07T06:53:20.483Z,9.60
2022-10-07T06:55:47.914Z,9.60
2022-10-07T06:58:14.158Z,9.90
2022-10-07T07:00:40.303Z,9.40
2022-10-07T07:03:06.496Z,9.30
2022-10-07T07:05:42.857Z,9.30
2022-10-07T07:08:15.898Z,9.60
2022-10-07T07:10:42.640Z,9.70
2022-10-07T07:13:09.990Z,9.70
2022-10-07T07:15:37.977Z,9.50
2022-10-07T07:18:06.501Z,9.40
2022-10-07T07:20:36.951Z,9.70
2022-10-07T07:23:08.076Z,10.10
2022-10-07T07:25:38.400Z,10.50
2022-10-07T07:28:06.247Z,10.40
2022-10-07T07:30:32.758Z,10.50
2022-10-07T07:32:59.073Z,10.60
2022-10-07T07:35:26.336Z,10.70
2022-10-07T07:37:53.735Z,11.00
2022-10-07T07:40:22.180Z,11.30
2022-10-07T07:42:48.702Z,11.60
2022-10-07T07:45:14.977Z,11.60
2022-10-07T07:47:42.174Z,11.70
2022-10-07T07:50:09.270Z,12.20
2022-10-07T07:52:35.505Z,12.10
2022-10-07T07:55:02.706Z,12.40
2022-10-07T07:57:29.166Z,12.60
2022-10-07T07:59:56.048Z,12.70
2022-10-07T08:02:22.692Z,12.80
2022-10-07T08:04:49.049Z,12.90
2022-10-07T08:07:15.772Z,13.00
2022-10-07T08:09:42.840Z,13.40
2022-10-07T08:12:09.051Z,12.60
2022-10-07T08:14:38.523Z,12.80
2022-10-07T08:17:04.702Z,13.50
2022-10-07T08:19:31.065Z,13.30
2022-10-07T08:21:58.085Z,13.40
2022-10-07T08:24:27.402Z,13.60
2022-10-07T08:26:53.648Z,13.60
2022-10-07T08:29:21.010Z,14.30
2022-10-07T08:31:48.547Z,15.30
2022-10-07T08:34:14.844Z,15.90
2022-10-07T08:36:43.851Z,17.20
2022-10-07T08:39:10.175Z,17.10
2022-10-07T08:41:52.375Z,17.60
2022-10-07T08:44:31.637Z,17.90
2022-10-07T08:48:52.285Z,17.60
2022-10-07T08:51:22.966Z,17.50
2022-10-07T08:53:50.382Z,17.60
2022-10-07T08:56:19.190Z,17.80
2022-10-07T08:59:20.678Z,18.40
2022-10-07T09:02:25.016Z,18.40
2022-10-07T09:05:18.316Z,18.80
2022-10-07T09:08:11.412Z,19.10
2022-10-07T09:10:40.679Z,19.50
2022-10-07T09:13:15.745Z,19.80
2022-10-07T09:15:52.768Z,20.20
2022-10-07T09:18:39.775Z,20.20
2022-10-07T09:21:16.106Z,20.30
2022-10-07T09:23:42.426Z,20.10
2022-10-07T09:26:13.729Z,19.90
2022-10-07T09:28:39.983Z,19.60
2022-10-07T09:31:06.277Z,19.30
2022-10-07T09:33:36.365Z,19.50
2022-10-07T09:36:08.729Z,19.30
2022-10-07T09:38:39.943Z,19.70
2022-10-07T09:41:15.970Z,19.80
2022-10-07T09:44:44.261Z,19.70
2022-10-07T09:47:22.365Z,19.70
2022-10-07T09:49:51.122Z,19.90
2022-10-07T09:52:24.848Z,19.90
2022-10-07T09:54:52.415Z,20.00
2022-10-07T09:57:33.622Z,19.90
2022-10-07T10:01:56.128Z,19.90
2022-10-07T10:04:34.880Z,20.00
2022-10-07T10:07:05.918Z,20.30
2022-10-07T10:09:33.209Z,20.50
2022-10-07T10:12:18.959Z,20.80
2022-10-07T10:15:17.021Z,20.70
2022-10-07T10:17:45.342Z,20.40
2022-10-07T10:20:42.930Z,20.70
2022-10-07T10:23:37.514Z,21.20
2022-10-07T10:27:22.822Z,21.60
2022-10-07T10:30:31.458Z,21.40
2022-10-07T10:33:22.839Z,21.00
2022-10-07T10:35:58.967Z,20.90
2022-10-07T10:38:34.347Z,20.70
2022-10-07T10:43:02.127Z,20.60
2022-10-07T10:47:16.427Z,21.10
2022-10-07T10:51:23.515Z,20.90
2022-10-07T10:55:34.289Z,20.10
2022-10-07T10:58:23.708Z,20.20
2022-10-07T11:01:41.706Z,20.60
2022-10-07T11:07:44.322Z,20.50
2022-10-07T11:11:32.005Z,20.90
2022-10-07T11:14:02.086Z,21.20
2022-10-07T11:17:30.323Z,21.00
2022-10-07T11:21:52.119Z,21.20
2022-10-07T11:24:51.164Z,21.40
2022-10-07T11:27:29.272Z,21.70
2022-10-07T11:30:23.794Z,22.00
2022-10-07T11:33:04.878Z,21.80
2022-10-07T11:35:35.667Z,21.90
2022-10-07T11:38:21.914Z,22.00
2022-10-07T11:41:14.313Z,22.30
2022-10-07T11:43:49.096Z,22.30
2022-10-07T11:46:27.822Z,22.20
2022-10-07T11:49:21.179Z,22.20
2022-10-07T11:52:32.149Z,22.00
2022-10-07T11:55:07.017Z,22.10
2022-10-07T11:57:37.478Z,22.30
2022-10-07T12:00:27.325Z,22.40
2022-10-07T12:03:07.310Z,22.40
2022-10-07T12:05:56.931Z,22.50
2022-10-07T12:08:29.319Z,22.50
2022-10-07T12:11:40.233Z,22.40
2022-10-07T12:14:32.423Z,22.30
2022-10-07T12:17:00.455Z,22.30
2022-10-07T12:19:26.706Z,22.30
2022-10-07T12:22:27.390Z,22.30
2022-10-07T12:25:28.443Z,22.20
2022-10-07T12:27:56.924Z,22.00
2022-10-07T12:30:50.295Z,22.20
2022-10-07T12:33:39.588Z,22.00
2022-10-07T12:38:01.691Z,21.90
2022-10-07T12:40:29.299Z,22.30
2022-10-07T12:43:10.115Z,22.50
2022-10-07T12:45:39.395Z,22.20
2022-10-07T12:48:06.701Z,21.90
2022-10-07T12:50:34.117Z,22.30
2022-10-07T12:53:01.824Z,22.30
2022-10-07T12:55:39.095Z,22.10
2022-10-07T12:58:51.587Z,22.10
2022-10-07T13:01:52.129Z,22.20
2022-10-07T13:06:11.210Z,22.10
2022-10-07T13:15:28.358Z,22.00
2022-10-07T13:18:03.107Z,22.40
2022-10-07T13:20:39.689Z,22.30
2022-10-07T13:23:23.237Z,22.20
2022-10-07T13:25:53.334Z,22.30
2022-10-07T13:28:25.252Z,22.20
2022-10-07T13:30:51.875Z,22.10
2022-10-07T13:33:31.789Z,22.10
2022-10-07T13:36:27.621Z,22.00
2022-10-07T13:39:13.631Z,21.90
2022-10-07T13:41:42.963Z,22.00
2022-10-07T13:44:11.387Z,22.00
2022-10-07T13:46:39.043Z,21.40
2022-10-07T13:49:08.079Z,21.70
2022-10-07T13:51:40.147Z,21.40
2022-10-07T13:54:15.548Z,21.40
2022-10-07T13:56:41.769Z,21.30
2022-10-07T13:59:15.283Z,21.30
2022-10-07T14:01:44.434Z,21.20
2022-10-07T14:04:33.738Z,21.40
2022-10-07T14:07:15.797Z,21.40
2022-10-07T14:10:08.071Z,21.40
2022-10-07T14:12:42.267Z,21.20
2022-10-07T14:15:25.009Z,21.00
2022-10-07T14:18:08.156Z,20.70
2022-10-07T14:20:44.608Z,20.60
2022-10-07T14:23:25.696Z,20.50
2022-10-07T14:26:05.562Z,20.40
2022-10-07T14:28:34.917Z,20.30
2022-10-07T14:31:40.555Z,20.20
2022-10-07T14:34:35.872Z,20.30
2022-10-07T14:37:35.425Z,20.10
2022-10-07T14:40:01.902Z,19.90
2022-10-07T14:42:36.017Z,19.80
2022-10-07T14:45:03.597Z,19.70
2022-10-07T14:47:31.370Z,19.50
2022-10-07T14:50:00.054Z,19.40
2022-10-07T14:52:35.557Z,19.20
2022-10-07T14:55:09.252Z,19.10
2022-10-07T14:57:35.507Z,19.00
2022-10-07T15:00:02.162Z,19.00
2022-10-07T15:02:28.582Z,18.90
2022-10-07T15:04:54.831Z,18.80
2022-10-07T15:07:21.787Z,18.60
2022-10-07T15:09:48.083Z,18.50
2022-10-07T15:12:15.428Z,18.40
2022-10-07T15:14:41.810Z,18.40
2022-10-07T15:17:11.751Z,18.20
2022-10-07T15:19:38.044Z,18.20
2022-10-07T15:22:06.107Z,18.10
2022-10-07T15:24:34.488Z,18.00
2022-10-07T15:27:01.128Z,17.90
2022-10-07T15:29:27.507Z,17.80
2022-10-07T15:31:54.263Z,17.70
2022-10-07T15:34:20.527Z,17.50
2022-10-07T15:36:48.468Z,17.40
2022-10-07T15:39:14.637Z,17.30
2022-10-07T15:41:41.305Z,17.20
2022-10-07T15:44:15.511Z,17.00
2022-10-07T15:46:42.527Z,16.90
2022-10-07T15:49:08.884Z,16.80
2022-10-07T15:51:35.881Z,16.60
2022-10-07T15:54:04.644Z,16.50
2022-10-07T15:56:30.969Z,16.30
2022-10-07T15:59:00.325Z,16.10
2022-10-07T16:01:27.659Z,16.00
2022-10-07T16:03:58.570Z,15.80
2022-10-07T16:06:26.980Z,15.70
2022-10-07T16:08:54.588Z,15.50
2022-10-07T16:11:20.881Z,15.30
2022-10-07T16:13:47.708Z,15.10
2022-10-07T16:16:15.713Z,15.00
2022-10-07T16:18:43.514Z,14.90
2022-10-07T16:21:12.265Z,14.80
2022-10-07T16:23:43.345Z,14.60
2022-10-07T16:26:17.523Z,14.50
2022-10-07T16:29:05.615Z,14.40
2022-10-07T16:31:33.186Z,14.40
2022-10-07T16:33:59.639Z,14.20
2022-10-07T16:36:26.900Z,14.20
2022-10-07T16:38:53.315Z,14.10
2022-10-07T16:41:20.395Z,14.00
2022-10-07T16:43:47.586Z,13.90
2022-10-07T16:46:18.281Z,13.90
2022-10-07T16:48:45.311Z,13.80
2022-10-07T16:51:13.259Z,13.70
2022-10-07T16:53:40.458Z,13.70
2022-10-07T16:56:07.041Z,13.60
2022-10-07T16:58:33.598Z,13.50
2022-10-07T17:01:04.309Z,13.40
2022-10-07T17:03:30.612Z,13.40
2022-10-07T17:05:57.377Z,13.50
2022-10-07T17:08:26.598Z,13.50
2022-10-07T17:10:52.847Z,13.40
2022-10-07T17:13:21.111Z,13.30
2022-10-07T17:15:52.412Z,13.20
2022-10-07T17:18:19.459Z,13.10
2022-10-07T17:20:49.311Z,13.10
2022-10-07T17:23:15.836Z,13.00
2022-10-07T17:25:46.177Z,12.90
2022-10-07T17:28:13.643Z,12.80
2022-10-07T17:30:40.191Z,12.70
2022-10-07T17:33:06.484Z,12.70
2022-10-07T17:35:33.672Z,12.70
2022-10-07T17:38:02.738Z,12.60
2022-10-07T17:40:30.577Z,12.60
2022-10-07T17:43:01.875Z,12.50
2022-10-07T17:45:29.424Z,12.60
2022-10-07T17:47:56.971Z,12.50
2022-10-07T17:50:25.158Z,12.40
2022-10-07T17:52:52.973Z,12.40
2022-10-07T17:55:19.319Z,12.50
2022-10-07T17:57:45.851Z,12.40
2022-10-07T18:00:12.870Z,12.30
2022-10-07T18:02:39.463Z,12.40
2022-10-07T18:05:07.286Z,12.30
2022-10-07T18:07:34.408Z,12.20
2022-10-07T18:10:01.768Z,12.20
2022-10-07T18:12:46.467Z,12.40
2022-10-07T18:15:18.970Z,12.50
2022-10-07T18:17:47.480Z,12.70
2022-10-07T18:20:15.444Z,12.70
2022-10-07T18:22:43.633Z,12.80
2022-10-07T18:25:11.891Z,12.90
2022-10-07T18:27:38.752Z,13.00
2022-10-07T18:30:09.657Z,13.00
2022-10-07T18:32:37.025Z,13.20
2022-10-07T18:35:06.043Z,13.40
2022-10-07T18:37:32.616Z,13.50
2022-10-07T18:40:03.710Z,13.50
2022-10-07T18:42:30.814Z,13.50
2022-10-07T18:45:00.355Z,13.60
2022-10-07T18:47:32.181Z,13.60
2022-10-07T18:49:59.852Z,13.70
2022-10-07T18:52:31.156Z,13.70
2022-10-07T18:55:02.741Z,13.70
2022-10-07T18:57:32.418Z,13.70
2022-10-07T19:00:00.438Z,13.70
2022-10-07T19:02:29.482Z,13.70
2022-10-07T19:05:00.778Z,13.80
2022-10-07T19:07:33.680Z,13.80
2022-10-07T19:10:04.016Z,13.80
2022-10-07T19:12:53.635Z,13.80
2022-10-07T19:15:23.085Z,13.80
2022-10-07T19:17:49.947Z,13.80
2022-10-07T19:20:17.635Z,13.80
2022-10-07T19:22:45.603Z,13.80
2022-10-07T19:25:36.601Z,13.80
2022-10-07T19:28:05.300Z,13.80
2022-10-07T19:30:34.424Z,13.80
2022-10-07T19:33:01.120Z,13.80
2022-10-07T19:35:30.210Z,13.80
2022-10-07T19:37:57.845Z,13.80
2022-10-07T19:40:26.133Z,13.80
2022-10-07T19:42:55.460Z,13.70
2022-10-07T19:45:24.700Z,13.70
2022-10-07T19:47:53.718Z,13.60
2022-10-07T19:50:20.922Z,13.70
2022-10-07T19:52:48.417Z,13.60
2022-10-07T19:55:15.086Z,13.60
2022-10-07T19:57:41.549Z,13.60
2022-10-07T20:00:11.533Z,13.60
2022-10-07T20:02:43.582Z,13.60
2022-10-07T20:05:10.090Z,13.70
2022-10-07T20:07:36.489Z,13.80
2022-10-07T20:10:07.737Z,11.80
2022-10-07T20:12:34.843Z,13.70
2022-10-07T20:15:02.987Z,13.80
2022-10-07T20:17:29.478Z,13.80
2022-10-07T20:19:56.126Z,13.90
2022-10-07T20:22:22.453Z,14.00
2022-10-07T20:24:50.660Z,14.00
2022-10-07T20:27:18.116Z,13.90
2022-10-07T20:29:56.734Z,13.90
2022-10-07T20:32:27.960Z,13.90
2022-10-07T20:34:54.609Z,13.80
2022-10-07T20:37:21.154Z,13.90
2022-10-07T20:40:07.117Z,13.90
2022-10-07T20:42:33.545Z,13.90
2022-10-07T20:45:00.304Z,13.90
2022-10-07T20:47:30.584Z,13.90
2022-10-07T20:49:59.403Z,14.00
2022-10-07T20:52:27.306Z,14.10
2022-10-07T20:54:54.415Z,14.10
2022-10-07T20:57:26.759Z,14.20
2022-10-07T20:59:53.199Z,16.40
2022-10-07T21:02:21.178Z,14.40
2022-10-07T21:04:47.636Z,14.50
2022-10-07T21:07:15.844Z,14.50
2022-10-07T21:09:42.325Z,14.60
2022-10-07T21:12:14.037Z,14.70
2022-10-07T21:14:42.506Z,14.80
2022-10-07T21:17:09.582Z,14.80
2022-10-07T21:19:36.151Z,14.80
2022-10-07T21:22:05.671Z,14.90
2022-10-07T21:24:34.797Z,14.90
2022-10-07T21:27:04.080Z,15.00
2022-10-07T21:29:38.984Z,15.10
2022-10-07T21:32:07.799Z,15.20
2022-10-07T21:34:35.060Z,15.30
2022-10-07T21:37:03.287Z,15.30
2022-10-07T21:39:29.854Z,15.30
2022-10-07T21:41:57.341Z,15.30
2022-10-07T21:44:23.696Z,15.40
2022-10-07T21:46:49.927Z,15.30
2022-10-07T21:49:16.461Z,15.40
2022-10-07T21:51:43.175Z,15.40
2022-10-07T21:54:16.621Z,15.50
2022-10-07T21:56:45.242Z,15.60
2022-10-07T21:59:12.673Z,15.60
2022-10-07T22:01:38.998Z,15.70
2022-10-07T22:04:06.647Z,15.70
2022-10-07T22:06:51.517Z,15.60
2022-10-07T22:09:20.275Z,15.60
2022-10-07T22:11:47.008Z,15.50
2022-10-07T22:14:14.296Z,15.50
2022-10-07T22:16:40.668Z,15.60
2022-10-07T22:19:08.654Z,15.50
2022-10-07T22:21:40.449Z,15.50
2022-10-07T22:24:08.343Z,15.40
2022-10-07T22:26:40.747Z,15.30
2022-10-07T22:29:10.043Z,15.30
2022-10-07T22:31:38.160Z,15.20
2022-10-07T22:34:04.609Z,15.20
2022-10-07T22:36:30.839Z,15.20
2022-10-07T22:38:58.434Z,15.20
2022-10-07T22:41:25.052Z,15.10
2022-10-07T22:43:52.510Z,15.10
2022-10-07T22:46:27.098Z,15.00
2022-10-07T22:48:57.244Z,15.00
2022-10-07T22:51:23.723Z,15.00
2022-10-07T22:53:56.772Z,15.00
2022-10-07T22:56:24.660Z,14.90
2022-10-07T22:59:00.045Z,14.90
2022-10-07T23:01:30.758Z,14.80
2022-10-07T23:04:00.993Z,14.70
2022-10-07T23:06:27.327Z,14.70
2022-10-07T23:08:53.792Z,14.60
2022-10-07T23:11:22.771Z,14.50
2022-10-07T23:13:50.980Z,14.50
2022-10-07T23:16:22.878Z,14.40
2022-10-07T23:18:52.091Z,14.30
2022-10-07T23:21:20.722Z,14.20
2022-10-07T23:23:48.667Z,14.20
2022-10-07T23:26:20.388Z,14.00
2022-10-07T23:28:48.748Z,14.00
2022-10-07T23:31:17.738Z,14.00
2022-10-07T23:33:46.269Z,14.00
2022-10-07T23:36:13.760Z,14.00
2022-10-07T23:38:46.247Z,13.90
2022-10-07T23:41:14.137Z,14.00
2022-10-07T23:43:40.479Z,14.00
2022-10-07T23:46:13.289Z,14.00
2022-10-07T23:48:40.713Z,14.00
2022-10-07T23:51:07.206Z,14.00
2022-10-07T23:53:34.062Z,14.00
2022-10-07T23:56:00.310Z,14.00
2022-10-07T23:58:27.777Z,14.00
